sensor_id;sensor_type;location;lat;lon;timestamp;P1;durP1;ratioP1;P2;durP2;ratioP2
8568;SDS011;4322;51.104;-4.162;2022-08-01T00:01:57;1.50;;;1.50;;
8568;SDS011;4322;51.104;-4.162;2022-08-01T00:04:25;1.43;;;1.43;;
8568;SDS011;4322;51.104;-4.162;2022-08-01T00:06:53;1.50;;;1.50;;
8568;SDS011;4322;51.104;-4.162;2022-08-01T00:09:21;1.60;;;1.60;;
8568;SDS011;4322;51.104;-4.162;2022-08-01T00:11:51;1.53;;;1.53;;
8568;SDS011;4322;51.104;-4.162;2022-08-01T00:14:25;1.60;;;1.60;;
8568;SDS011;4322;51.104;-4.162;2022-08-01T00:16:58;1.43;;;1.43;;
8568;SDS011;4322;51.104;-4.162;2022-08-01T00:19:32;1.47;;;1.47;;
8568;SDS011;4322;51.104;-4.162;2022-08-01T00:22:01;1.50;;;1.50;;
8568;SDS011;4322;51.104;-4.162;2022-08-01T00:24:29;1.30;;;1.30;;
8568;SDS011;4322;51.104;-4.162;2022-08-01T00:26:59;1.50;;;1.50;;
8568;SDS011;4322;51.104;-4.162;2022-08-01T00:29:27;1.40;;;1.40;;
8568;SDS011;4322;51.104;-4.162;2022-08-01T00:32:15;1.37;;;1.37;;
8568;SDS011;4322;51.104;-4.162;2022-08-01T00:34:43;1.40;;;1.40;;
8568;SDS011;4322;51.104;-4.162;2022-08-01T00:37:11;1.53;;;1.53;;
8568;SDS011;4322;51.104;-4.162;2022-08-01T00:39:41;1.40;;;1.40;;
8568;SDS011;4322;51.104;-4.162;2022-08-01T00:42:11;1.30;;;1.30;;
8568;SDS011;4322;51.104;-4.162;2022-08-01T00:44:40;1.30;;;1.30;;
8568;SDS011;4322;51.104;-4.162;2022-08-01T00:47:08;1.33;;;1.33;;
8568;SDS011;4322;51.104;-4.162;2022-08-01T00:49:37;1.40;;;1.40;;
8568;SDS011;4322;51.104;-4.162;2022-08-01T00:52:05;1.40;;;1.40;;
8568;SDS011;4322;51.104;-4.162;2022-08-01T00:54:34;1.40;;;1.40;;
8568;SDS011;4322;51.104;-4.162;2022-08-01T00:57:03;1.47;;;1.47;;
8568;SDS011;4322;51.104;-4.162;2022-08-01T00:59:37;1.20;;;1.20;;
8568;SDS011;4322;51.104;-4.162;2022-08-01T01:02:08;1.50;;;1.50;;
8568;SDS011;4322;51.104;-4.162;2022-08-01T01:04:41;1.57;;;1.57;;
8568;SDS011;4322;51.104;-4.162;2022-08-01T01:07:11;1.40;;;1.40;;
8568;SDS011;4322;51.104;-4.162;2022-08-01T01:09:45;1.40;;;1.40;;
8568;SDS011;4322;51.104;-4.162;2022-08-01T01:12:25;1.30;;;1.30;;
8568;SDS011;4322;51.104;-4.162;2022-08-01T01:15:06;1.40;;;1.40;;
8568;SDS011;4322;51.104;-4.162;2022-08-01T01:17:39;1.30;;;1.30;;
8568;SDS011;4322;51.104;-4.162;2022-08-01T01:20:17;1.60;;;1.60;;
8568;SDS011;4322;51.104;-4.162;2022-08-01T01:22:55;1.40;;;1.40;;
8568;SDS011;4322;51.104;-4.162;2022-08-01T01:25:37;1.40;;;1.40;;
8568;SDS011;4322;51.104;-4.162;2022-08-01T01:28:14;1.50;;;1.50;;
8568;SDS011;4322;51.104;-4.162;2022-08-01T01:30:50;1.40;;;1.40;;
8568;SDS011;4322;51.104;-4.162;2022-08-01T01:33:21;1.20;;;1.20;;
8568;SDS011;4322;51.104;-4.162;2022-08-01T01:35:56;1.40;;;1.40;;
8568;SDS011;4322;51.104;-4.162;2022-08-01T01:38:28;1.50;;;1.50;;
8568;SDS011;4322;51.104;-4.162;2022-08-01T01:40:59;1.40;;;1.40;;
8568;SDS011;4322;51.104;-4.162;2022-08-01T01:43:29;1.27;;;1.27;;
8568;SDS011;4322;51.104;-4.162;2022-08-01T01:46:01;1.27;;;1.27;;
8568;SDS011;4322;51.104;-4.162;2022-08-01T01:48:30;1.30;;;1.30;;
8568;SDS011;4322;51.104;-4.162;2022-08-01T01:51:01;1.40;;;1.40;;
8568;SDS011;4322;51.104;-4.162;2022-08-01T01:53:30;1.43;;;1.43;;
8568;SDS011;4322;51.104;-4.162;2022-08-01T01:56:00;1.30;;;1.30;;
8568;SDS011;4322;51.104;-4.162;2022-08-01T01:58:30;1.30;;;1.30;;
8568;SDS011;4322;51.104;-4.162;2022-08-01T02:01:02;1.40;;;1.40;;
8568;SDS011;4322;51.104;-4.162;2022-08-01T02:03:39;1.40;;;1.40;;
8568;SDS011;4322;51.104;-4.162;2022-08-01T02:06:11;1.40;;;1.40;;
8568;SDS011;4322;51.104;-4.162;2022-08-01T02:08:41;1.50;;;1.50;;
8568;SDS011;4322;51.104;-4.162;2022-08-01T02:11:11;1.30;;;1.30;;
8568;SDS011;4322;51.104;-4.162;2022-08-01T02:13:46;1.43;;;1.43;;
8568;SDS011;4322;51.104;-4.162;2022-08-01T02:16:22;1.50;;;1.50;;
8568;SDS011;4322;51.104;-4.162;2022-08-01T02:18:53;1.40;;;1.40;;
8568;SDS011;4322;51.104;-4.162;2022-08-01T02:21:23;1.40;;;1.40;;
8568;SDS011;4322;51.104;-4.162;2022-08-01T02:23:55;1.37;;;1.37;;
8568;SDS011;4322;51.104;-4.162;2022-08-01T02:26:31;1.60;;;1.60;;
8568;SDS011;4322;51.104;-4.162;2022-08-01T02:29:01;1.30;;;1.30;;
8568;SDS011;4322;51.104;-4.162;2022-08-01T02:31:35;1.60;;;1.60;;
8568;SDS011;4322;51.104;-4.162;2022-08-01T02:34:09;1.60;;;1.60;;
8568;SDS011;4322;51.104;-4.162;2022-08-01T02:36:40;1.33;;;1.33;;
8568;SDS011;4322;51.104;-4.162;2022-08-01T02:39:12;1.57;;;1.57;;
8568;SDS011;4322;51.104;-4.162;2022-08-01T02:41:42;1.50;;;1.50;;
8568;SDS011;4322;51.104;-4.162;2022-08-01T02:44:14;1.40;;;1.40;;
8568;SDS011;4322;51.104;-4.162;2022-08-01T02:46:51;1.40;;;1.40;;
8568;SDS011;4322;51.104;-4.162;2022-08-01T02:49:21;1.50;;;1.50;;
8568;SDS011;4322;51.104;-4.162;2022-08-01T02:51:52;1.40;;;1.40;;
8568;SDS011;4322;51.104;-4.162;2022-08-01T02:54:22;1.60;;;1.60;;
8568;SDS011;4322;51.104;-4.162;2022-08-01T02:56:53;1.40;;;1.40;;
8568;SDS011;4322;51.104;-4.162;2022-08-01T02:59:23;1.57;;;1.57;;
8568;SDS011;4322;51.104;-4.162;2022-08-01T03:01:56;1.60;;;1.60;;
8568;SDS011;4322;51.104;-4.162;2022-08-01T03:04:28;1.60;;;1.60;;
8568;SDS011;4322;51.104;-4.162;2022-08-01T03:06:57;1.60;;;1.60;;
8568;SDS011;4322;51.104;-4.162;2022-08-01T03:09:26;1.50;;;1.50;;
8568;SDS011;4322;51.104;-4.162;2022-08-01T03:11:57;1.60;;;1.60;;
8568;SDS011;4322;51.104;-4.162;2022-08-01T03:14:30;1.60;;;1.60;;
8568;SDS011;4322;51.104;-4.162;2022-08-01T03:17:04;1.60;;;1.60;;
8568;SDS011;4322;51.104;-4.162;2022-08-01T03:19:33;1.60;;;1.60;;
8568;SDS011;4322;51.104;-4.162;2022-08-01T03:22:04;1.50;;;1.50;;
8568;SDS011;4322;51.104;-4.162;2022-08-01T03:24:36;1.33;;;1.33;;
8568;SDS011;4322;51.104;-4.162;2022-08-01T03:27:06;1.50;;;1.50;;
8568;SDS011;4322;51.104;-4.162;2022-08-01T03:29:38;1.60;;;1.60;;
8568;SDS011;4322;51.104;-4.162;2022-08-01T03:32:09;1.60;;;1.60;;
8568;SDS011;4322;51.104;-4.162;2022-08-01T03:34:40;1.60;;;1.60;;
8568;SDS011;4322;51.104;-4.162;2022-08-01T03:37:10;1.60;;;1.60;;
8568;SDS011;4322;51.104;-4.162;2022-08-01T03:39:44;1.70;;;1.70;;
8568;SDS011;4322;51.104;-4.162;2022-08-01T03:42:17;1.80;;;1.80;;
8568;SDS011;4322;51.104;-4.162;2022-08-01T03:44:59;1.40;;;1.40;;
8568;SDS011;4322;51.104;-4.162;2022-08-01T03:47:33;1.50;;;1.50;;
8568;SDS011;4322;51.104;-4.162;2022-08-01T03:50:10;1.50;;;1.50;;
8568;SDS011;4322;51.104;-4.162;2022-08-01T03:52:41;1.57;;;1.57;;
8568;SDS011;4322;51.104;-4.162;2022-08-01T03:55:12;1.60;;;1.60;;
8568;SDS011;4322;51.104;-4.162;2022-08-01T03:57:44;1.47;;;1.47;;
8568;SDS011;4322;51.104;-4.162;2022-08-01T04:00:13;1.50;;;1.50;;
8568;SDS011;4322;51.104;-4.162;2022-08-01T04:02:46;1.50;;;1.50;;
8568;SDS011;4322;51.104;-4.162;2022-08-01T04:05:15;1.60;;;1.60;;
8568;SDS011;4322;51.104;-4.162;2022-08-01T04:07:45;1.80;;;1.80;;
8568;SDS011;4322;51.104;-4.162;2022-08-01T04:10:14;1.77;;;1.77;;
8568;SDS011;4322;51.104;-4.162;2022-08-01T04:12:42;1.80;;;1.80;;
8568;SDS011;4322;51.104;-4.162;2022-08-01T04:15:10;1.70;;;1.70;;
8568;SDS011;4322;51.104;-4.162;2022-08-01T04:17:38;1.70;;;1.70;;
8568;SDS011;4322;51.104;-4.162;2022-08-01T04:20:08;1.70;;;1.70;;
8568;SDS011;4322;51.104;-4.162;2022-08-01T04:22:38;1.80;;;1.80;;
8568;SDS011;4322;51.104;-4.162;2022-08-01T04:25:12;1.60;;;1.60;;
8568;SDS011;4322;51.104;-4.162;2022-08-01T04:27:45;1.80;;;1.80;;
8568;SDS011;4322;51.104;-4.162;2022-08-01T04:30:18;1.70;;;1.70;;
8568;SDS011;4322;51.104;-4.162;2022-08-01T04:32:54;1.70;;;1.70;;
8568;SDS011;4322;51.104;-4.162;2022-08-01T04:35:26;1.80;;;1.80;;
8568;SDS011;4322;51.104;-4.162;2022-08-01T04:38:17;1.90;;;1.90;;
8568;SDS011;4322;51.104;-4.162;2022-08-01T04:40:49;1.70;;;1.70;;
8568;SDS011;4322;51.104;-4.162;2022-08-01T04:43:19;1.90;;;1.90;;
8568;SDS011;4322;51.104;-4.162;2022-08-01T04:45:48;1.80;;;1.80;;
8568;SDS011;4322;51.104;-4.162;2022-08-01T04:48:18;1.77;;;1.77;;
8568;SDS011;4322;51.104;-4.162;2022-08-01T04:50:49;1.90;;;1.90;;
8568;SDS011;4322;51.104;-4.162;2022-08-01T04:53:19;1.80;;;1.80;;
8568;SDS011;4322;51.104;-4.162;2022-08-01T04:55:48;1.87;;;1.87;;
8568;SDS011;4322;51.104;-4.162;2022-08-01T04:58:16;2.20;;;2.10;;
8568;SDS011;4322;51.104;-4.162;2022-08-01T05:00:45;1.90;;;1.90;;
8568;SDS011;4322;51.104;-4.162;2022-08-01T05:03:14;1.90;;;1.90;;
8568;SDS011;4322;51.104;-4.162;2022-08-01T05:05:42;2.10;;;2.10;;
8568;SDS011;4322;51.104;-4.162;2022-08-01T05:08:11;2.10;;;2.10;;
8568;SDS011;4322;51.104;-4.162;2022-08-01T05:10:39;2.27;;;2.17;;
8568;SDS011;4322;51.104;-4.162;2022-08-01T05:13:07;2.10;;;2.10;;
8568;SDS011;4322;51.104;-4.162;2022-08-01T05:15:36;2.10;;;2.10;;
8568;SDS011;4322;51.104;-4.162;2022-08-01T05:18:04;2.00;;;2.00;;
8568;SDS011;4322;51.104;-4.162;2022-08-01T05:20:34;2.00;;;2.00;;
8568;SDS011;4322;51.104;-4.162;2022-08-01T05:23:03;2.30;;;2.20;;
8568;SDS011;4322;51.104;-4.162;2022-08-01T05:25:36;2.30;;;2.20;;
8568;SDS011;4322;51.104;-4.162;2022-08-01T05:28:22;1.97;;;1.97;;
8568;SDS011;4322;51.104;-4.162;2022-08-01T05:30:50;2.10;;;2.10;;
8568;SDS011;4322;51.104;-4.162;2022-08-01T05:33:21;2.00;;;2.00;;
8568;SDS011;4322;51.104;-4.162;2022-08-01T05:35:49;2.03;;;2.03;;
8568;SDS011;4322;51.104;-4.162;2022-08-01T05:38:17;1.97;;;1.97;;
8568;SDS011;4322;51.104;-4.162;2022-08-01T05:40:47;2.30;;;2.20;;
8568;SDS011;4322;51.104;-4.162;2022-08-01T05:43:15;2.00;;;2.00;;
8568;SDS011;4322;51.104;-4.162;2022-08-01T05:45:43;2.30;;;2.20;;
8568;SDS011;4322;51.104;-4.162;2022-08-01T05:48:12;2.00;;;2.00;;
8568;SDS011;4322;51.104;-4.162;2022-08-01T05:50:40;2.30;;;2.20;;
8568;SDS011;4322;51.104;-4.162;2022-08-01T05:53:08;1.80;;;1.80;;
8568;SDS011;4322;51.104;-4.162;2022-08-01T05:55:36;2.03;;;2.03;;
8568;SDS011;4322;51.104;-4.162;2022-08-01T05:58:06;2.10;;;2.10;;
8568;SDS011;4322;51.104;-4.162;2022-08-01T06:00:37;2.10;;;2.10;;
8568;SDS011;4322;51.104;-4.162;2022-08-01T06:03:05;2.03;;;2.03;;
8568;SDS011;4322;51.104;-4.162;2022-08-01T06:05:33;2.10;;;2.10;;
8568;SDS011;4322;51.104;-4.162;2022-08-01T06:08:02;2.00;;;2.00;;
8568;SDS011;4322;51.104;-4.162;2022-08-01T06:10:30;2.00;;;2.00;;
8568;SDS011;4322;51.104;-4.162;2022-08-01T06:12:58;2.00;;;2.00;;
8568;SDS011;4322;51.104;-4.162;2022-08-01T06:15:30;2.03;;;2.03;;
8568;SDS011;4322;51.104;-4.162;2022-08-01T06:17:59;2.37;;;2.27;;
8568;SDS011;4322;51.104;-4.162;2022-08-01T06:20:27;2.00;;;2.00;;
8568;SDS011;4322;51.104;-4.162;2022-08-01T06:22:55;2.03;;;2.03;;
8568;SDS011;4322;51.104;-4.162;2022-08-01T06:25:26;1.93;;;1.93;;
8568;SDS011;4322;51.104;-4.162;2022-08-01T06:27:54;2.10;;;2.10;;
8568;SDS011;4322;51.104;-4.162;2022-08-01T06:30:22;2.20;;;2.13;;
8568;SDS011;4322;51.104;-4.162;2022-08-01T06:32:53;1.90;;;1.90;;
8568;SDS011;4322;51.104;-4.162;2022-08-01T06:35:22;2.27;;;2.20;;
8568;SDS011;4322;51.104;-4.162;2022-08-01T06:37:50;1.90;;;1.90;;
8568;SDS011;4322;51.104;-4.162;2022-08-01T06:40:18;2.10;;;2.10;;
8568;SDS011;4322;51.104;-4.162;2022-08-01T06:42:46;2.10;;;2.10;;
8568;SDS011;4322;51.104;-4.162;2022-08-01T06:45:14;2.13;;;2.10;;
8568;SDS011;4322;51.104;-4.162;2022-08-01T06:47:43;2.30;;;2.20;;
8568;SDS011;4322;51.104;-4.162;2022-08-01T06:50:17;2.27;;;2.17;;
8568;SDS011;4322;51.104;-4.162;2022-08-01T06:52:46;2.30;;;2.20;;
8568;SDS011;4322;51.104;-4.162;2022-08-01T06:55:14;2.10;;;2.10;;
8568;SDS011;4322;51.104;-4.162;2022-08-01T06:57:45;2.43;;;2.33;;
8568;SDS011;4322;51.104;-4.162;2022-08-01T07:00:14;2.40;;;2.30;;
8568;SDS011;4322;51.104;-4.162;2022-08-01T07:02:45;2.53;;;2.43;;
8568;SDS011;4322;51.104;-4.162;2022-08-01T07:05:13;2.00;;;2.00;;
8568;SDS011;4322;51.104;-4.162;2022-08-01T07:07:42;2.40;;;2.30;;
8568;SDS011;4322;51.104;-4.162;2022-08-01T07:10:11;2.07;;;2.07;;
8568;SDS011;4322;51.104;-4.162;2022-08-01T07:12:40;2.00;;;2.00;;
8568;SDS011;4322;51.104;-4.162;2022-08-01T07:15:08;2.40;;;2.30;;
8568;SDS011;4322;51.104;-4.162;2022-08-01T07:17:37;1.97;;;1.97;;
8568;SDS011;4322;51.104;-4.162;2022-08-01T07:20:07;2.20;;;2.10;;
8568;SDS011;4322;51.104;-4.162;2022-08-01T07:22:35;2.10;;;2.10;;
8568;SDS011;4322;51.104;-4.162;2022-08-01T07:25:06;2.23;;;2.13;;
8568;SDS011;4322;51.104;-4.162;2022-08-01T07:27:35;1.80;;;1.80;;
8568;SDS011;4322;51.104;-4.162;2022-08-01T07:30:04;1.90;;;1.90;;
8568;SDS011;4322;51.104;-4.162;2022-08-01T07:32:33;2.30;;;2.20;;
8568;SDS011;4322;51.104;-4.162;2022-08-01T07:35:01;1.90;;;1.90;;
8568;SDS011;4322;51.104;-4.162;2022-08-01T07:37:29;2.00;;;2.00;;
8568;SDS011;4322;51.104;-4.162;2022-08-01T07:40:16;2.50;;;2.40;;
8568;SDS011;4322;51.104;-4.162;2022-08-01T07:42:45;1.90;;;1.90;;
8568;SDS011;4322;51.104;-4.162;2022-08-01T07:45:14;2.10;;;2.10;;
8568;SDS011;4322;51.104;-4.162;2022-08-01T07:47:43;2.03;;;2.03;;
8568;SDS011;4322;51.104;-4.162;2022-08-01T07:50:11;2.40;;;2.30;;
8568;SDS011;4322;51.104;-4.162;2022-08-01T07:52:40;2.10;;;2.10;;
8568;SDS011;4322;51.104;-4.162;2022-08-01T07:55:08;2.17;;;2.13;;
8568;SDS011;4322;51.104;-4.162;2022-08-01T07:57:43;2.33;;;2.23;;
8568;SDS011;4322;51.104;-4.162;2022-08-01T08:00:12;2.10;;;2.10;;
8568;SDS011;4322;51.104;-4.162;2022-08-01T08:02:40;2.40;;;2.30;;
8568;SDS011;4322;51.104;-4.162;2022-08-01T08:05:08;2.33;;;2.23;;
8568;SDS011;4322;51.104;-4.162;2022-08-01T08:07:37;2.40;;;2.30;;
8568;SDS011;4322;51.104;-4.162;2022-08-01T08:10:05;2.20;;;2.17;;
8568;SDS011;4322;51.104;-4.162;2022-08-01T08:12:34;2.50;;;2.40;;
8568;SDS011;4322;51.104;-4.162;2022-08-01T08:15:03;2.03;;;2.03;;
8568;SDS011;4322;51.104;-4.162;2022-08-01T08:17:33;2.43;;;2.33;;
8568;SDS011;4322;51.104;-4.162;2022-08-01T08:20:02;2.60;;;2.50;;
8568;SDS011;4322;51.104;-4.162;2022-08-01T08:22:34;2.80;;;2.70;;
8568;SDS011;4322;51.104;-4.162;2022-08-01T08:25:08;2.63;;;2.53;;
8568;SDS011;4322;51.104;-4.162;2022-08-01T08:27:37;2.60;;;2.50;;
8568;SDS011;4322;51.104;-4.162;2022-08-01T08:30:07;2.77;;;2.67;;
8568;SDS011;4322;51.104;-4.162;2022-08-01T08:32:37;2.50;;;2.40;;
8568;SDS011;4322;51.104;-4.162;2022-08-01T08:35:06;2.73;;;2.63;;
8568;SDS011;4322;51.104;-4.162;2022-08-01T08:37:38;2.60;;;2.50;;
8568;SDS011;4322;51.104;-4.162;2022-08-01T08:40:13;2.70;;;2.60;;
8568;SDS011;4322;51.104;-4.162;2022-08-01T08:42:43;2.50;;;2.40;;
8568;SDS011;4322;51.104;-4.162;2022-08-01T08:45:14;2.67;;;2.57;;
8568;SDS011;4322;51.104;-4.162;2022-08-01T08:47:42;2.60;;;2.50;;
8568;SDS011;4322;51.104;-4.162;2022-08-01T08:50:12;2.70;;;2.60;;
8568;SDS011;4322;51.104;-4.162;2022-08-01T08:52:41;2.30;;;2.20;;
8568;SDS011;4322;51.104;-4.162;2022-08-01T08:55:10;2.60;;;2.50;;
8568;SDS011;4322;51.104;-4.162;2022-08-01T08:57:40;2.33;;;2.23;;
8568;SDS011;4322;51.104;-4.162;2022-08-01T09:00:11;2.60;;;2.50;;
8568;SDS011;4322;51.104;-4.162;2022-08-01T09:02:43;2.60;;;2.50;;
8568;SDS011;4322;51.104;-4.162;2022-08-01T09:05:12;2.60;;;2.50;;
8568;SDS011;4322;51.104;-4.162;2022-08-01T09:07:45;2.60;;;2.50;;
8568;SDS011;4322;51.104;-4.162;2022-08-01T09:10:13;2.60;;;2.50;;
8568;SDS011;4322;51.104;-4.162;2022-08-01T09:12:59;2.37;;;2.27;;
8568;SDS011;4322;51.104;-4.162;2022-08-01T09:15:37;2.30;;;2.20;;
8568;SDS011;4322;51.104;-4.162;2022-08-01T09:18:07;2.23;;;2.20;;
8568;SDS011;4322;51.104;-4.162;2022-08-01T09:20:36;2.30;;;2.20;;
8568;SDS011;4322;51.104;-4.162;2022-08-01T09:23:04;2.00;;;2.00;;
8568;SDS011;4322;51.104;-4.162;2022-08-01T09:25:33;2.10;;;2.10;;
8568;SDS011;4322;51.104;-4.162;2022-08-01T09:28:27;1.90;;;1.90;;
8568;SDS011;4322;51.104;-4.162;2022-08-01T09:30:56;1.80;;;1.80;;
8568;SDS011;4322;51.104;-4.162;2022-08-01T09:33:25;1.90;;;1.90;;
8568;SDS011;4322;51.104;-4.162;2022-08-01T09:36:16;1.70;;;1.70;;
8568;SDS011;4322;51.104;-4.162;2022-08-01T09:38:45;1.80;;;1.80;;
8568;SDS011;4322;51.104;-4.162;2022-08-01T09:41:16;1.63;;;1.63;;
8568;SDS011;4322;51.104;-4.162;2022-08-01T09:43:49;1.60;;;1.60;;
8568;SDS011;4322;51.104;-4.162;2022-08-01T09:46:19;1.70;;;1.70;;
8568;SDS011;4322;51.104;-4.162;2022-08-01T09:48:59;1.70;;;1.70;;
8568;SDS011;4322;51.104;-4.162;2022-08-01T09:51:33;1.60;;;1.60;;
8568;SDS011;4322;51.104;-4.162;2022-08-01T09:54:29;1.70;;;1.70;;
8568;SDS011;4322;51.104;-4.162;2022-08-01T09:57:12;1.80;;;1.80;;
8568;SDS011;4322;51.104;-4.162;2022-08-01T09:59:43;1.60;;;1.60;;
8568;SDS011;4322;51.104;-4.162;2022-08-01T10:02:29;1.70;;;1.70;;
8568;SDS011;4322;51.104;-4.162;2022-08-01T10:05:02;1.67;;;1.67;;
8568;SDS011;4322;51.104;-4.162;2022-08-01T10:07:35;1.70;;;1.70;;
8568;SDS011;4322;51.104;-4.162;2022-08-01T10:10:24;1.60;;;1.60;;
8568;SDS011;4322;51.104;-4.162;2022-08-01T10:12:54;1.67;;;1.67;;
8568;SDS011;4322;51.104;-4.162;2022-08-01T10:15:23;1.80;;;1.80;;
8568;SDS011;4322;51.104;-4.162;2022-08-01T10:18:03;1.60;;;1.60;;
8568;SDS011;4322;51.104;-4.162;2022-08-01T10:20:53;1.70;;;1.70;;
8568;SDS011;4322;51.104;-4.162;2022-08-01T10:23:23;1.70;;;1.70;;
8568;SDS011;4322;51.104;-4.162;2022-08-01T10:26:06;1.60;;;1.60;;
8568;SDS011;4322;51.104;-4.162;2022-08-01T10:28:35;1.80;;;1.80;;
8568;SDS011;4322;51.104;-4.162;2022-08-01T10:31:04;1.40;;;1.40;;
8568;SDS011;4322;51.104;-4.162;2022-08-01T10:33:38;1.60;;;1.60;;
8568;SDS011;4322;51.104;-4.162;2022-08-01T10:36:20;1.50;;;1.50;;
8568;SDS011;4322;51.104;-4.162;2022-08-01T10:38:51;1.70;;;1.70;;
8568;SDS011;4322;51.104;-4.162;2022-08-01T10:41:20;1.50;;;1.50;;
8568;SDS011;4322;51.104;-4.162;2022-08-01T10:43:48;1.60;;;1.60;;
8568;SDS011;4322;51.104;-4.162;2022-08-01T10:46:18;1.50;;;1.50;;
8568;SDS011;4322;51.104;-4.162;2022-08-01T10:48:49;1.50;;;1.50;;
8568;SDS011;4322;51.104;-4.162;2022-08-01T10:51:25;1.40;;;1.40;;
8568;SDS011;4322;51.104;-4.162;2022-08-01T10:54:15;1.70;;;1.70;;
8568;SDS011;4322;51.104;-4.162;2022-08-01T10:56:44;1.70;;;1.70;;
8568;SDS011;4322;51.104;-4.162;2022-08-01T10:59:14;1.50;;;1.50;;
8568;SDS011;4322;51.104;-4.162;2022-08-01T11:02:07;1.63;;;1.63;;
8568;SDS011;4322;51.104;-4.162;2022-08-01T11:04:42;1.60;;;1.60;;
8568;SDS011;4322;51.104;-4.162;2022-08-01T11:07:20;1.57;;;1.57;;
8568;SDS011;4322;51.104;-4.162;2022-08-01T11:10:02;1.60;;;1.60;;
8568;SDS011;4322;51.104;-4.162;2022-08-01T11:12:40;1.50;;;1.50;;
8568;SDS011;4322;51.104;-4.162;2022-08-01T11:15:16;1.63;;;1.63;;
8568;SDS011;4322;51.104;-4.162;2022-08-01T11:17:56;1.70;;;1.70;;
8568;SDS011;4322;51.104;-4.162;2022-08-01T11:20:26;1.80;;;1.80;;
8568;SDS011;4322;51.104;-4.162;2022-08-01T11:26:08;1.70;;;1.70;;
8568;SDS011;4322;51.104;-4.162;2022-08-01T11:28:37;1.70;;;1.70;;
8568;SDS011;4322;51.104;-4.162;2022-08-01T11:31:25;1.70;;;1.70;;
8568;SDS011;4322;51.104;-4.162;2022-08-01T11:33:55;1.53;;;1.53;;
8568;SDS011;4322;51.104;-4.162;2022-08-01T11:36:28;1.40;;;1.40;;
8568;SDS011;4322;51.104;-4.162;2022-08-01T11:39:18;1.70;;;1.70;;
8568;SDS011;4322;51.104;-4.162;2022-08-01T11:41:46;1.60;;;1.60;;
8568;SDS011;4322;51.104;-4.162;2022-08-01T11:44:19;1.60;;;1.60;;
8568;SDS011;4322;51.104;-4.162;2022-08-01T11:49:45;1.70;;;1.70;;
8568;SDS011;4322;51.104;-4.162;2022-08-01T11:52:17;1.60;;;1.60;;
8568;SDS011;4322;51.104;-4.162;2022-08-01T11:55:00;1.50;;;1.50;;
8568;SDS011;4322;51.104;-4.162;2022-08-01T11:57:37;1.70;;;1.70;;
8568;SDS011;4322;51.104;-4.162;2022-08-01T12:00:09;1.50;;;1.50;;
8568;SDS011;4322;51.104;-4.162;2022-08-01T12:02:43;1.67;;;1.67;;
8568;SDS011;4322;51.104;-4.162;2022-08-01T12:05:12;1.77;;;1.77;;
8568;SDS011;4322;51.104;-4.162;2022-08-01T12:07:43;1.70;;;1.70;;
8568;SDS011;4322;51.104;-4.162;2022-08-01T12:10:14;1.60;;;1.60;;
8568;SDS011;4322;51.104;-4.162;2022-08-01T12:12:43;1.53;;;1.53;;
8568;SDS011;4322;51.104;-4.162;2022-08-01T12:15:13;1.70;;;1.70;;
8568;SDS011;4322;51.104;-4.162;2022-08-01T12:17:42;1.73;;;1.73;;
8568;SDS011;4322;51.104;-4.162;2022-08-01T12:20:26;1.77;;;1.77;;
8568;SDS011;4322;51.104;-4.162;2022-08-01T12:22:58;1.60;;;1.60;;
8568;SDS011;4322;51.104;-4.162;2022-08-01T12:25:33;1.70;;;1.70;;
8568;SDS011;4322;51.104;-4.162;2022-08-01T12:28:03;1.70;;;1.70;;
8568;SDS011;4322;51.104;-4.162;2022-08-01T12:30:32;1.60;;;1.60;;
8568;SDS011;4322;51.104;-4.162;2022-08-01T12:33:02;1.53;;;1.53;;
8568;SDS011;4322;51.104;-4.162;2022-08-01T12:35:31;1.80;;;1.80;;
8568;SDS011;4322;51.104;-4.162;2022-08-01T12:38:01;1.60;;;1.60;;
8568;SDS011;4322;51.104;-4.162;2022-08-01T12:40:33;1.77;;;1.77;;
8568;SDS011;4322;51.104;-4.162;2022-08-01T12:43:06;1.70;;;1.70;;
8568;SDS011;4322;51.104;-4.162;2022-08-01T12:45:54;1.73;;;1.73;;
8568;SDS011;4322;51.104;-4.162;2022-08-01T12:48:24;1.70;;;1.70;;
8568;SDS011;4322;51.104;-4.162;2022-08-01T12:50:53;1.63;;;1.63;;
8568;SDS011;4322;51.104;-4.162;2022-08-01T12:53:24;1.70;;;1.70;;
8568;SDS011;4322;51.104;-4.162;2022-08-01T12:56:08;1.60;;;1.60;;
8568;SDS011;4322;51.104;-4.162;2022-08-01T12:58:37;1.60;;;1.60;;
8568;SDS011;4322;51.104;-4.162;2022-08-01T13:01:06;1.50;;;1.50;;
8568;SDS011;4322;51.104;-4.162;2022-08-01T13:03:37;1.40;;;1.40;;
8568;SDS011;4322;51.104;-4.162;2022-08-01T13:06:09;1.40;;;1.40;;
8568;SDS011;4322;51.104;-4.162;2022-08-01T13:08:39;1.60;;;1.60;;
8568;SDS011;4322;51.104;-4.162;2022-08-01T13:11:09;1.50;;;1.50;;
8568;SDS011;4322;51.104;-4.162;2022-08-01T13:13:41;1.47;;;1.47;;
8568;SDS011;4322;51.104;-4.162;2022-08-01T13:16:14;1.10;;;1.10;;
8568;SDS011;4322;51.104;-4.162;2022-08-01T13:19:03;1.30;;;1.30;;
8568;SDS011;4322;51.104;-4.162;2022-08-01T13:21:32;1.40;;;1.40;;
8568;SDS011;4322;51.104;-4.162;2022-08-01T13:24:23;1.50;;;1.50;;
8568;SDS011;4322;51.104;-4.162;2022-08-01T13:26:55;1.27;;;1.27;;
8568;SDS011;4322;51.104;-4.162;2022-08-01T13:29:30;1.37;;;1.37;;
8568;SDS011;4322;51.104;-4.162;2022-08-01T13:32:00;1.30;;;1.30;;
8568;SDS011;4322;51.104;-4.162;2022-08-01T13:35:00;1.30;;;1.30;;
8568;SDS011;4322;51.104;-4.162;2022-08-01T13:37:28;1.33;;;1.33;;
8568;SDS011;4322;51.104;-4.162;2022-08-01T13:39:57;1.30;;;1.30;;
8568;SDS011;4322;51.104;-4.162;2022-08-01T13:42:27;1.33;;;1.33;;
8568;SDS011;4322;51.104;-4.162;2022-08-01T13:44:55;1.47;;;1.47;;
8568;SDS011;4322;51.104;-4.162;2022-08-01T13:47:23;1.40;;;1.40;;
8568;SDS011;4322;51.104;-4.162;2022-08-01T13:49:57;1.20;;;1.20;;
8568;SDS011;4322;51.104;-4.162;2022-08-01T13:52:27;1.30;;;1.30;;
8568;SDS011;4322;51.104;-4.162;2022-08-01T13:54:56;1.40;;;1.40;;
8568;SDS011;4322;51.104;-4.162;2022-08-01T13:57:24;1.30;;;1.30;;
8568;SDS011;4322;51.104;-4.162;2022-08-01T14:00:05;1.30;;;1.30;;
8568;SDS011;4322;51.104;-4.162;2022-08-01T14:02:35;1.30;;;1.30;;
8568;SDS011;4322;51.104;-4.162;2022-08-01T14:05:04;1.27;;;1.27;;
8568;SDS011;4322;51.104;-4.162;2022-08-01T14:07:32;1.13;;;1.13;;
8568;SDS011;4322;51.104;-4.162;2022-08-01T14:10:04;1.30;;;1.30;;
8568;SDS011;4322;51.104;-4.162;2022-08-01T14:12:45;1.40;;;1.40;;
8568;SDS011;4322;51.104;-4.162;2022-08-01T14:15:15;1.20;;;1.20;;
8568;SDS011;4322;51.104;-4.162;2022-08-01T14:18:04;1.23;;;1.23;;
8568;SDS011;4322;51.104;-4.162;2022-08-01T14:20:34;1.40;;;1.40;;
8568;SDS011;4322;51.104;-4.162;2022-08-01T14:23:03;1.30;;;1.30;;
8568;SDS011;4322;51.104;-4.162;2022-08-01T14:25:34;1.30;;;1.30;;
8568;SDS011;4322;51.104;-4.162;2022-08-01T14:28:22;1.23;;;1.23;;
8568;SDS011;4322;51.104;-4.162;2022-08-01T14:30:53;1.20;;;1.20;;
8568;SDS011;4322;51.104;-4.162;2022-08-01T14:33:21;1.30;;;1.30;;
8568;SDS011;4322;51.104;-4.162;2022-08-01T14:35:50;1.30;;;1.30;;
8568;SDS011;4322;51.104;-4.162;2022-08-01T14:38:38;1.30;;;1.30;;
8568;SDS011;4322;51.104;-4.162;2022-08-01T14:41:06;1.20;;;1.20;;
8568;SDS011;4322;51.104;-4.162;2022-08-01T14:43:34;1.20;;;1.20;;
8568;SDS011;4322;51.104;-4.162;2022-08-01T14:46:04;1.40;;;1.40;;
8568;SDS011;4322;51.104;-4.162;2022-08-01T14:48:34;1.20;;;1.20;;
8568;SDS011;4322;51.104;-4.162;2022-08-01T14:51:02;1.40;;;1.40;;
8568;SDS011;4322;51.104;-4.162;2022-08-01T14:53:30;1.30;;;1.30;;
8568;SDS011;4322;51.104;-4.162;2022-08-01T14:56:01;1.30;;;1.30;;
8568;SDS011;4322;51.104;-4.162;2022-08-01T14:58:29;1.40;;;1.40;;
8568;SDS011;4322;51.104;-4.162;2022-08-01T15:00:57;1.20;;;1.20;;
8568;SDS011;4322;51.104;-4.162;2022-08-01T15:03:27;1.20;;;1.20;;
8568;SDS011;4322;51.104;-4.162;2022-08-01T15:05:55;1.30;;;1.30;;
8568;SDS011;4322;51.104;-4.162;2022-08-01T15:08:23;1.20;;;1.20;;
8568;SDS011;4322;51.104;-4.162;2022-08-01T15:10:52;1.30;;;1.30;;
8568;SDS011;4322;51.104;-4.162;2022-08-01T15:13:20;1.30;;;1.30;;
8568;SDS011;4322;51.104;-4.162;2022-08-01T15:15:48;1.20;;;1.20;;
8568;SDS011;4322;51.104;-4.162;2022-08-01T15:18:16;1.20;;;1.20;;
8568;SDS011;4322;51.104;-4.162;2022-08-01T15:20:46;1.20;;;1.20;;
8568;SDS011;4322;51.104;-4.162;2022-08-01T15:23:15;1.20;;;1.20;;
8568;SDS011;4322;51.104;-4.162;2022-08-01T15:25:43;1.40;;;1.40;;
8568;SDS011;4322;51.104;-4.162;2022-08-01T15:28:11;1.40;;;1.40;;
8568;SDS011;4322;51.104;-4.162;2022-08-01T15:30:40;1.40;;;1.40;;
8568;SDS011;4322;51.104;-4.162;2022-08-01T15:33:08;1.30;;;1.30;;
8568;SDS011;4322;51.104;-4.162;2022-08-01T15:35:36;1.30;;;1.30;;